Terminal Aerodrome Forecast
Issued by NWS

Home | Current Version | Previous Version | Text Only | Print | Product List | Glossary On
Versions: 1 2 3 4 5 6 7 8 9 10 11 12 13 14 15 16 17 18 19 20 21 22 23 24 25 26 27
000
FTUS43 KDLH 300500
TAFBRD
TAF
KBRD 300532Z 3006/3106 31006KT P6SM SCT019
      TEMPO 3006/3008 BKN019
     FM301300 21007KT P6SM BKN060
     FM301800 18010KT P6SM BKN070
     FM310000 18008KT P6SM VCSH OVC030=

USA.gov is the U.S. government's official web portal to all federal, state and local government web resources and services.